Time;durP1;ratioP1;P1;durP2;ratioP2;P2;SDS_P1;SDS_P2;PMS_P1;PMS_P2;Temp;Humidity;BMP_temperature;BMP_pressure;BME280_temperature;BME280_humidity;BME280_pressure;Samples;Min_cycle;Max_cycle;Signal;HPM_P1;HPM_P2
2022/10/19 00:01:35;;;;;;;12.83;6.03;;;10.80;99.90;;;;;;5094655;28;20187;-63
2022/10/19 00:04:04;;;;;;;13.90;6.30;;;10.80;99.90;;;;;;5094626;28;20203;-64
2022/10/19 00:06:36;;;;;;;13.53;5.80;;;10.80;99.90;;;;;;5093075;28;20715;-64
2022/10/19 00:09:08;;;;;;;13.87;6.50;;;10.80;99.90;;;;;;5094271;28;20191;-64
2022/10/19 00:11:39;;;;;;;17.97;6.77;;;10.80;99.90;;;;;;5094215;28;20188;-64
2022/10/19 00:14:08;;;;;;;19.17;6.60;;;10.80;99.90;;;;;;5094354;28;20645;-64
2022/10/19 00:16:38;;;;;;;12.00;6.53;;;10.70;99.90;;;;;;5094349;28;20195;-64
2022/10/19 00:19:08;;;;;;;11.63;6.20;;;10.70;99.90;;;;;;5094918;28;20191;-63
2022/10/19 00:21:37;;;;;;;14.53;6.13;;;10.70;99.90;;;;;;5094040;28;20195;-63
2022/10/19 00:24:08;;;;;;;11.30;6.73;;;10.70;99.90;;;;;;5092716;28;20196;-63
2022/10/19 00:26:36;;;;;;;13.60;6.80;;;10.70;99.90;;;;;;5094332;28;20187;-63
2022/10/19 00:29:05;;;;;;;9.17;6.63;;;10.60;99.90;;;;;;5094441;28;20191;-64
2022/10/19 00:31:34;;;;;;;12.97;7.00;;;10.60;99.90;;;;;;5094237;28;20199;-63
2022/10/19 00:34:02;;;;;;;17.10;6.77;;;10.60;99.90;;;;;;5093779;28;20200;-63
2022/10/19 00:36:33;;;;;;;15.83;6.80;;;10.50;99.90;;;;;;5094463;28;20191;-63
2022/10/19 00:39:02;;;;;;;11.10;6.73;;;10.50;99.90;;;;;;5093231;28;20253;-63
2022/10/19 00:41:33;;;;;;;19.70;7.20;;;10.50;99.90;;;;;;5093693;28;20184;-63
2022/10/19 00:44:05;;;;;;;13.43;7.60;;;10.50;99.90;;;;;;5092454;28;20198;-63
2022/10/19 00:46:35;;;;;;;11.20;7.27;;;10.50;99.90;;;;;;5092696;28;20197;-63
2022/10/19 00:49:09;;;;;;;14.47;7.27;;;10.50;99.90;;;;;;5093632;28;20265;-63
2022/10/19 00:51:43;;;;;;;13.73;7.70;;;10.50;99.90;;;;;;5093792;28;20632;-63
2022/10/19 00:54:12;;;;;;;12.23;7.40;;;10.40;99.90;;;;;;5094131;28;20522;-63
2022/10/19 00:56:54;;;;;;;20.37;7.30;;;10.40;99.90;;;;;;5093664;28;20201;-63
2022/10/19 00:59:24;;;;;;;15.93;8.17;;;10.40;99.90;;;;;;5092296;28;20195;-63
2022/10/19 01:06:38;;;;;;;17.77;7.13;;;10.40;99.90;;;;;;5093523;28;20541;-63
2022/10/19 01:09:07;;;;;;;17.03;7.67;;;10.30;99.90;;;;;;5093295;28;20213;-63
2022/10/19 01:11:44;;;;;;;19.53;8.80;;;10.30;99.90;;;;;;5093901;28;20188;-58
2022/10/19 01:14:33;;;;;;;15.30;7.70;;;10.30;99.90;;;;;;5093170;28;20221;-58
2022/10/19 01:17:12;;;;;;;15.53;7.80;;;10.20;99.90;;;;;;5093540;28;20619;-59
2022/10/19 01:20:15;;;;;;;18.87;8.07;;;10.20;99.90;;;;;;5093336;28;20187;-59
2022/10/19 01:22:57;;;;;;;21.47;8.83;;;10.20;99.90;;;;;;5108738;28;20203;-59
2022/10/19 01:25:41;;;;;;;16.33;7.67;;;10.20;99.90;;;;;;5093167;28;20194;-58
2022/10/19 01:28:24;;;;;;;15.73;8.40;;;10.20;99.90;;;;;;5085701;28;20667;-58
2022/10/19 01:30:59;;;;;;;17.67;8.80;;;10.20;99.90;;;;;;5092019;28;20179;-59
2022/10/19 01:33:39;;;;;;;19.80;8.63;;;10.10;99.90;;;;;;5092160;28;20199;-58
2022/10/19 01:36:19;;;;;;;15.53;8.23;;;10.10;99.90;;;;;;5072808;28;20405;-59
2022/10/19 01:38:53;;;;;;;19.37;8.47;;;10.10;99.90;;;;;;5073002;28;20196;-58
2022/10/19 01:41:33;;;;;;;15.87;8.17;;;10.10;99.90;;;;;;5072905;28;20191;-57
2022/10/19 01:44:07;;;;;;;16.23;8.30;;;10.10;99.90;;;;;;5072747;28;20192;-59
2022/10/19 01:46:41;;;;;;;14.90;8.27;;;10.10;99.90;;;;;;5093282;28;20201;-58
2022/10/19 01:49:15;;;;;;;15.07;7.97;;;10.10;99.90;;;;;;5092860;28;20225;-58
2022/10/19 01:51:49;;;;;;;17.90;8.53;;;10.10;99.90;;;;;;5080081;28;20199;-58
2022/10/19 01:54:20;;;;;;;18.63;9.37;;;10.00;99.90;;;;;;5078867;28;20269;-58
2022/10/19 01:56:51;;;;;;;13.83;8.07;;;10.10;99.90;;;;;;5080148;28;20579;-58
2022/10/19 01:59:22;;;;;;;20.00;9.13;;;10.00;99.90;;;;;;5091028;28;20196;-57
2022/10/19 02:01:54;;;;;;;18.57;7.97;;;10.00;99.90;;;;;;5084983;28;20198;-58
2022/10/19 02:04:24;;;;;;;25.27;9.23;;;10.00;99.90;;;;;;5077403;28;20200;-58
2022/10/19 02:06:54;;;;;;;14.70;8.60;;;10.00;99.90;;;;;;5076353;28;20285;-58
2022/10/19 02:09:23;;;;;;;20.97;8.77;;;10.00;99.90;;;;;;5076164;28;20215;-58
2022/10/19 02:11:55;;;;;;;20.83;8.70;;;10.00;99.90;;;;;;5077027;28;21130;-58
2022/10/19 02:14:30;;;;;;;25.93;9.13;;;9.90;99.90;;;;;;5094665;28;20312;-58
2022/10/19 02:17:04;;;;;;;18.83;8.80;;;9.90;99.90;;;;;;5095968;28;20183;-58
2022/10/19 02:19:34;;;;;;;17.87;9.37;;;9.90;99.90;;;;;;5096641;28;20629;-58
2022/10/19 02:22:05;;;;;;;18.43;9.00;;;9.90;99.90;;;;;;5096411;28;20218;-58
2022/10/19 02:24:33;;;;;;;15.97;8.67;;;9.90;99.90;;;;;;5096029;28;20195;-58
2022/10/19 02:27:03;;;;;;;25.20;9.13;;;9.80;99.90;;;;;;5094818;28;20184;-59
2022/10/19 02:29:33;;;;;;;19.60;9.23;;;9.80;99.90;;;;;;5096336;28;20203;-58
2022/10/19 02:32:04;;;;;;;19.40;9.50;;;9.80;99.90;;;;;;5094978;28;20218;-58
2022/10/19 02:34:33;;;;;;;24.10;9.00;;;9.80;99.90;;;;;;5096089;28;20195;-59
2022/10/19 02:37:02;;;;;;;21.83;10.00;;;9.80;99.90;;;;;;5095965;28;20188;-58
2022/10/19 02:39:33;;;;;;;22.50;9.60;;;9.80;99.90;;;;;;5088461;28;20249;-59
2022/10/19 02:42:07;;;;;;;23.33;9.80;;;9.80;99.90;;;;;;5081352;28;20199;-58
2022/10/19 02:44:42;;;;;;;16.60;9.90;;;9.80;99.90;;;;;;5095956;28;20646;-58
2022/10/19 02:47:15;;;;;;;17.63;9.50;;;9.70;99.90;;;;;;5096035;28;20195;-59
2022/10/19 02:49:44;;;;;;;16.57;8.77;;;9.70;99.90;;;;;;5095314;28;20661;-58
2022/10/19 02:52:13;;;;;;;18.53;9.40;;;9.70;99.90;;;;;;5094544;28;20198;-58
2022/10/19 02:54:44;;;;;;;22.63;10.07;;;9.70;99.90;;;;;;5094396;28;20572;-58
2022/10/19 02:57:17;;;;;;;27.43;10.80;;;9.70;99.90;;;;;;5089416;28;20234;-58
2022/10/19 02:59:46;;;;;;;18.67;10.10;;;9.70;99.90;;;;;;5087577;28;20196;-58
2022/10/19 03:02:17;;;;;;;23.43;10.83;;;9.70;99.90;;;;;;5078145;28;20652;-58
2022/10/19 03:04:46;;;;;;;22.93;10.60;;;9.60;99.90;;;;;;5095210;28;20196;-58
2022/10/19 03:07:20;;;;;;;24.67;10.60;;;9.60;99.90;;;;;;5094163;28;20225;-58
2022/10/19 03:09:48;;;;;;;26.47;11.07;;;9.60;99.90;;;;;;5095045;28;20214;-59
2022/10/19 03:12:17;;;;;;;16.67;9.90;;;9.60;99.90;;;;;;5095159;28;20543;-58
2022/10/19 03:14:45;;;;;;;21.47;10.30;;;9.60;99.90;;;;;;5089343;28;20571;-58
2022/10/19 03:17:15;;;;;;;17.80;10.53;;;9.60;99.90;;;;;;5074935;28;20192;-59
2022/10/19 03:19:43;;;;;;;23.37;10.33;;;9.60;99.90;;;;;;5074894;28;20188;-58
2022/10/19 03:22:13;;;;;;;24.83;10.60;;;9.50;99.90;;;;;;5073721;28;20265;-58
2022/10/19 03:24:42;;;;;;;20.70;10.60;;;9.60;99.90;;;;;;5075108;28;20223;-58
2022/10/19 03:27:10;;;;;;;23.13;10.80;;;9.60;99.90;;;;;;5086510;28;20662;-58
2022/10/19 03:29:38;;;;;;;26.23;10.63;;;9.50;99.90;;;;;;5093936;28;20211;-58
2022/10/19 03:32:06;;;;;;;21.80;10.10;;;9.50;99.90;;;;;;5094293;28;20187;-58
2022/10/19 03:34:36;;;;;;;18.87;10.03;;;9.50;99.90;;;;;;5093396;28;20202;-58
2022/10/19 03:37:04;;;;;;;26.13;10.13;;;9.50;99.90;;;;;;5093454;28;20191;-58
2022/10/19 03:39:32;;;;;;;21.97;10.20;;;9.50;99.90;;;;;;5093588;28;20546;-58
2022/10/19 03:42:01;;;;;;;25.00;10.07;;;9.50;99.90;;;;;;5094814;28;20549;-58
2022/10/19 03:44:29;;;;;;;26.97;10.73;;;9.50;99.90;;;;;;5094539;28;20193;-58
2022/10/19 03:46:58;;;;;;;30.50;10.20;;;9.50;99.90;;;;;;5075438;28;20210;-58
2022/10/19 03:53:46;;;;;;;27.77;9.73;;;9.50;99.90;;;;;;5079851;28;20556;-58
2022/10/19 03:56:16;;;;;;;16.03;9.97;;;9.40;99.90;;;;;;5100220;28;20203;-59
2022/10/19 03:58:47;;;;;;;21.17;10.63;;;9.40;99.90;;;;;;5081764;28;20234;-58
2022/10/19 04:01:17;;;;;;;18.60;10.00;;;9.40;99.90;;;;;;5087966;28;20196;-59
2022/10/19 04:04:24;;;;;;;20.87;9.93;;;9.40;99.90;;;;;;5080630;28;20238;-58
2022/10/19 04:07:12;;;;;;;26.00;10.20;;;9.40;99.90;;;;;;5077300;28;20204;-57
2022/10/19 04:09:42;;;;;;;28.93;10.40;;;9.40;99.90;;;;;;5089717;28;20215;-58
2022/10/19 04:12:10;;;;;;;19.13;9.80;;;9.40;99.90;;;;;;5093455;28;20195;-59
2022/10/19 04:14:39;;;;;;;22.37;10.20;;;9.40;99.90;;;;;;5074286;28;20274;-58
2022/10/19 04:17:24;;;;;;;23.90;10.43;;;9.40;99.90;;;;;;5084197;28;20199;-59
2022/10/19 04:19:52;;;;;;;23.53;10.13;;;9.40;99.90;;;;;;5073920;28;20188;-59
2022/10/19 04:22:23;;;;;;;24.37;10.17;;;9.50;99.90;;;;;;5079507;28;20206;-58
2022/10/19 04:24:53;;;;;;;22.83;10.60;;;9.50;99.90;;;;;;5094070;28;20282;-58
2022/10/19 04:27:22;;;;;;;20.17;9.57;;;9.50;99.90;;;;;;5093728;28;20218;-58
2022/10/19 04:29:50;;;;;;;26.27;10.97;;;9.50;99.90;;;;;;5083271;28;20233;-57
2022/10/19 04:32:18;;;;;;;21.20;10.23;;;9.40;99.90;;;;;;5081444;28;20207;-59
2022/10/19 04:34:46;;;;;;;23.63;10.50;;;9.40;99.90;;;;;;5092375;28;20191;-58
2022/10/19 04:37:15;;;;;;;27.70;10.43;;;9.40;99.90;;;;;;5093666;28;20196;-58
2022/10/19 04:39:43;;;;;;;20.93;10.57;;;9.40;99.90;;;;;;5092156;28;20184;-58
2022/10/19 04:42:13;;;;;;;22.67;10.63;;;9.40;99.90;;;;;;5092217;28;20187;-58
2022/10/19 04:44:41;;;;;;;27.47;11.13;;;9.40;99.90;;;;;;5086653;28;20188;-58
2022/10/19 04:47:09;;;;;;;26.70;11.37;;;9.30;99.90;;;;;;5079076;28;20661;-58
2022/10/19 04:49:38;;;;;;;32.57;11.00;;;9.30;99.90;;;;;;5084689;28;20212;-57
2022/10/19 04:52:06;;;;;;;35.93;11.70;;;9.30;99.90;;;;;;5092282;28;20191;-58
2022/10/19 04:54:34;;;;;;;22.57;11.17;;;9.30;99.90;;;;;;5092149;28;20222;-58
2022/10/19 04:57:03;;;;;;;27.57;11.40;;;9.30;99.90;;;;;;5090073;28;20720;-58
2022/10/19 04:59:33;;;;;;;25.93;11.37;;;9.30;99.90;;;;;;5085513;28;20199;-58
2022/10/19 05:02:01;;;;;;;28.80;11.30;;;9.30;99.90;;;;;;5093268;28;20210;-58
2022/10/19 05:04:30;;;;;;;26.57;11.50;;;9.30;99.90;;;;;;5093412;28;20279;-58
2022/10/19 05:06:58;;;;;;;24.57;11.30;;;9.30;99.90;;;;;;5093650;28;20206;-58
2022/10/19 05:09:27;;;;;;;30.50;11.53;;;9.30;99.90;;;;;;5093169;28;20272;-58
2022/10/19 05:11:55;;;;;;;23.77;11.73;;;9.30;99.90;;;;;;5078618;28;20196;-59
2022/10/19 05:14:24;;;;;;;34.00;11.73;;;9.30;99.90;;;;;;5092558;28;20207;-57
2022/10/19 05:16:53;;;;;;;31.50;12.90;;;9.30;99.90;;;;;;5092471;28;20278;-58
2022/10/19 05:19:21;;;;;;;24.93;11.20;;;9.30;99.90;;;;;;5093896;28;20194;-58
2022/10/19 05:21:50;;;;;;;27.37;11.67;;;9.30;99.90;;;;;;5094855;28;20195;-57
2022/10/19 05:24:18;;;;;;;36.83;11.83;;;9.30;99.90;;;;;;5095930;28;20199;-57
2022/10/19 05:26:46;;;;;;;34.03;12.23;;;9.20;99.90;;;;;;5102990;28;20649;-58
2022/10/19 05:29:15;;;;;;;33.67;12.60;;;9.20;99.90;;;;;;5117247;28;20205;-57
2022/10/19 05:31:43;;;;;;;39.83;12.00;;;9.20;99.90;;;;;;5107236;28;20199;-58
2022/10/19 05:34:13;;;;;;;24.53;12.23;;;9.20;99.90;;;;;;5097168;28;20195;-58
2022/10/19 05:36:41;;;;;;;26.43;11.83;;;9.20;99.90;;;;;;5085122;28;20252;-58
2022/10/19 05:39:13;;;;;;;33.47;12.90;;;9.20;99.90;;;;;;5075445;28;20184;-58
2022/10/19 05:41:43;;;;;;;28.00;12.53;;;9.20;99.90;;;;;;5083330;28;20239;-57
2022/10/19 05:44:15;;;;;;;41.70;16.50;;;9.20;99.90;;;;;;5088627;28;20191;-58
2022/10/19 05:46:46;;;;;;;32.97;14.63;;;9.20;99.90;;;;;;5096401;28;20245;-58
2022/10/19 05:49:17;;;;;;;30.00;14.97;;;9.20;99.90;;;;;;5095717;28;20184;-57
2022/10/19 05:51:45;;;;;;;33.13;14.40;;;9.10;99.90;;;;;;5089890;28;20328;-57
2022/10/19 05:54:16;;;;;;;30.60;14.80;;;9.10;99.90;;;;;;5095862;28;20206;-58
2022/10/19 05:56:45;;;;;;;24.53;12.97;;;9.10;99.90;;;;;;5087045;28;20223;-57
2022/10/19 05:59:20;;;;;;;30.50;13.07;;;9.10;99.90;;;;;;5090415;28;20187;-60
2022/10/19 06:01:48;;;;;;;27.30;13.90;;;9.10;99.90;;;;;;5090858;28;20206;-58
2022/10/19 06:04:18;;;;;;;30.90;13.57;;;9.10;99.90;;;;;;5076829;28;20200;-58
2022/10/19 06:06:46;;;;;;;30.47;12.80;;;9.10;99.90;;;;;;5089837;28;20195;-59
2022/10/19 06:09:14;;;;;;;30.17;13.77;;;9.10;99.90;;;;;;5095437;28;20203;-58
2022/10/19 06:11:43;;;;;;;26.00;13.93;;;9.10;99.90;;;;;;5096566;28;20215;-58
2022/10/19 06:14:14;;;;;;;24.17;12.80;;;9.10;99.90;;;;;;5096164;28;20226;-57
2022/10/19 06:16:42;;;;;;;28.83;13.60;;;9.10;99.90;;;;;;5075995;28;20199;-58
2022/10/19 06:19:10;;;;;;;27.17;13.43;;;9.10;99.90;;;;;;5094965;28;20210;-58
2022/10/19 06:21:40;;;;;;;33.10;14.87;;;9.10;99.90;;;;;;5096035;28;20680;-57
2022/10/19 06:27:36;;;;;;;34.77;14.87;;;9.10;99.90;;;;;;5110490;28;20209;-59
2022/10/19 06:30:23;;;;;;;35.57;14.93;;;9.10;99.90;;;;;;5099036;28;20285;-58
2022/10/19 06:32:52;;;;;;;32.93;14.23;;;9.10;99.90;;;;;;5096149;28;20199;-59
2022/10/19 06:40:04;;;;;;;28.83;13.80;;;9.10;99.90;;;;;;5075545;28;20198;-58
2022/10/19 06:42:37;;;;;;;33.47;14.80;;;9.20;99.90;;;;;;5079303;28;20237;-59
2022/10/19 06:45:07;;;;;;;29.60;14.70;;;9.20;99.90;;;;;;5096191;28;20192;-58
2022/10/19 06:47:36;;;;;;;33.90;15.07;;;9.10;99.90;;;;;;5084480;28;20196;-58
2022/10/19 06:50:06;;;;;;;29.17;14.53;;;9.20;99.90;;;;;;5089369;28;20241;-58
2022/10/19 06:52:35;;;;;;;37.03;15.63;;;9.20;99.90;;;;;;5095390;28;20654;-58
2022/10/19 06:55:06;;;;;;;29.40;15.27;;;9.10;99.90;;;;;;5093531;28;20195;-58
2022/10/19 06:57:34;;;;;;;35.23;14.20;;;9.20;99.90;;;;;;5093614;28;20227;-58
2022/10/19 07:00:04;;;;;;;30.33;15.00;;;9.20;99.90;;;;;;5095111;28;20206;-59
2022/10/19 07:02:32;;;;;;;41.87;15.20;;;9.20;99.90;;;;;;5094421;28;20196;-58
2022/10/19 07:05:01;;;;;;;29.50;15.50;;;9.20;99.90;;;;;;5095614;28;20190;-58
2022/10/19 07:07:34;;;;;;;29.47;15.17;;;9.30;99.90;;;;;;5095650;28;20207;-58
2022/10/19 07:10:06;;;;;;;27.00;14.37;;;9.40;99.90;;;;;;5095279;28;20199;-58
2022/10/19 07:12:34;;;;;;;26.03;14.30;;;9.40;99.90;;;;;;5078947;28;20198;-59
2022/10/19 07:15:05;;;;;;;31.47;14.80;;;9.50;99.90;;;;;;5081400;28;20235;-57
2022/10/19 07:17:33;;;;;;;32.63;14.43;;;9.60;99.90;;;;;;5102854;28;20226;-58
2022/10/19 07:20:02;;;;;;;34.63;14.30;;;9.70;99.90;;;;;;5115592;28;20201;-58
2022/10/19 07:22:30;;;;;;;31.23;14.60;;;9.80;99.90;;;;;;5097266;28;20189;-58
2022/10/19 07:24:59;;;;;;;31.00;14.23;;;9.90;99.90;;;;;;5115988;28;20210;-57
2022/10/19 07:27:28;;;;;;;24.40;12.83;;;9.90;99.90;;;;;;5103257;28;20565;-58
2022/10/19 07:30:04;;;;;;;30.43;13.30;;;10.00;99.90;;;;;;5089737;28;20647;-59
2022/10/19 07:32:32;;;;;;;30.80;13.17;;;10.20;99.90;;;;;;5093830;28;20207;-58
2022/10/19 07:35:00;;;;;;;24.77;12.53;;;10.30;99.90;;;;;;5094806;28;20534;-58
2022/10/19 07:37:28;;;;;;;26.23;12.47;;;10.30;99.90;;;;;;5094674;28;20233;-57
2022/10/19 07:39:57;;;;;;;27.13;12.30;;;10.50;99.90;;;;;;5086581;28;20196;-59
2022/10/19 07:42:25;;;;;;;24.03;11.90;;;10.50;99.90;;;;;;5092192;28;20548;-58
2022/10/19 07:44:55;;;;;;;26.23;11.83;;;10.60;99.90;;;;;;5094699;28;20199;-59
2022/10/19 07:47:23;;;;;;;23.70;12.80;;;10.70;99.90;;;;;;5094733;28;20202;-58
2022/10/19 07:49:51;;;;;;;27.70;11.57;;;10.80;99.90;;;;;;5094343;28;20195;-59
2022/10/19 07:52:20;;;;;;;23.50;11.70;;;10.90;99.90;;;;;;5084951;28;20216;-58
2022/10/19 07:54:48;;;;;;;23.37;10.53;;;10.90;99.90;;;;;;5074249;28;20646;-58
2022/10/19 07:57:17;;;;;;;22.83;11.33;;;11.00;99.90;;;;;;5074046;28;20579;-59
2022/10/19 07:59:45;;;;;;;19.23;10.70;;;11.10;99.90;;;;;;5081633;28;20194;-59
2022/10/19 08:02:16;;;;;;;27.17;11.83;;;11.20;99.90;;;;;;5114808;28;20183;-58
2022/10/19 08:04:45;;;;;;;22.50;11.63;;;11.30;99.90;;;;;;5087416;28;20222;-58
2022/10/19 08:07:32;;;;;;;30.83;11.20;;;11.30;99.90;;;;;;5075563;28;20208;-58
2022/10/19 08:10:00;;;;;;;26.37;12.00;;;11.40;99.90;;;;;;5073682;28;20192;-58
2022/10/19 08:12:28;;;;;;;22.33;11.73;;;11.40;99.90;;;;;;5078999;28;20261;-59
2022/10/19 08:14:57;;;;;;;22.77;11.97;;;11.40;99.90;;;;;;5077289;28;20306;-58
2022/10/19 08:17:26;;;;;;;24.90;12.17;;;11.40;99.90;;;;;;5094674;28;20287;-58
2022/10/19 08:19:55;;;;;;;22.73;11.70;;;11.40;99.90;;;;;;5093978;28;20195;-58
2022/10/19 08:22:23;;;;;;;21.30;11.33;;;11.50;99.90;;;;;;5080328;28;20192;-57
2022/10/19 08:24:51;;;;;;;20.13;11.00;;;11.50;99.90;;;;;;5079520;28;20191;-58
2022/10/19 08:27:20;;;;;;;24.57;11.43;;;11.50;99.90;;;;;;5105820;28;20191;-58
2022/10/19 08:29:48;;;;;;;19.07;10.53;;;11.50;99.90;;;;;;5077224;28;20231;-58
2022/10/19 08:32:16;;;;;;;32.90;11.97;;;11.60;99.90;;;;;;5073496;28;20235;-58
2022/10/19 08:34:45;;;;;;;20.20;11.20;;;11.60;99.90;;;;;;5079350;28;20199;-58
2022/10/19 08:37:14;;;;;;;21.73;11.03;;;11.70;99.90;;;;;;5093728;28;20187;-58
2022/10/19 08:39:59;;;;;;;18.70;10.30;;;11.80;99.90;;;;;;5093662;28;20550;-58
2022/10/19 08:42:37;;;;;;;22.10;10.70;;;11.90;99.90;;;;;;5081117;28;20191;-57
2022/10/19 08:45:33;;;;;;;20.00;10.43;;;12.00;99.90;;;;;;5093615;28;20183;-58
2022/10/19 08:48:25;;;;;;;20.47;9.77;;;12.10;99.90;;;;;;5072089;28;20249;-58
2022/10/19 08:50:56;;;;;;;22.00;10.57;;;12.30;99.90;;;;;;5073237;28;20204;-58
2022/10/19 08:53:33;;;;;;;17.17;9.87;;;12.40;99.90;;;;;;5082006;28;20661;-58
2022/10/19 08:56:18;;;;;;;17.57;9.60;;;12.50;99.90;;;;;;5092094;28;20279;-58
2022/10/19 08:59:14;;;;;;;23.83;9.57;;;12.60;99.90;;;;;;5092822;28;20226;-58
2022/10/19 09:01:48;;;;;;;19.87;9.23;;;12.70;99.90;;;;;;5093729;28;20191;-58
2022/10/19 09:04:22;;;;;;;32.10;9.40;;;12.90;99.90;;;;;;5085186;28;20188;-58
2022/10/19 09:07:07;;;;;;;18.37;9.47;;;13.00;99.90;;;;;;5072862;28;20258;-58
2022/10/19 09:09:42;;;;;;;14.50;9.07;;;13.10;99.90;;;;;;5091921;28;20202;-58
2022/10/19 09:12:17;;;;;;;20.77;10.03;;;13.20;99.90;;;;;;5092192;28;20222;-59
2022/10/19 09:14:56;;;;;;;23.47;9.13;;;13.40;99.90;;;;;;5083678;28;20204;-58
2022/10/19 09:17:25;;;;;;;18.47;9.13;;;13.50;99.90;;;;;;5087243;28;20183;-59
2022/10/19 09:19:53;;;;;;;19.77;9.83;;;13.60;99.90;;;;;;5101120;28;20582;-58
2022/10/19 09:22:27;;;;;;;18.03;8.63;;;13.60;99.90;;;;;;5106783;28;20669;-58
2022/10/19 09:25:00;;;;;;;17.87;9.33;;;13.70;99.90;;;;;;5092125;28;20530;-58
2022/10/19 09:27:35;;;;;;;15.67;8.47;;;13.80;99.90;;;;;;5092402;28;20188;-58
2022/10/19 09:30:10;;;;;;;15.60;8.30;;;13.90;99.90;;;;;;5093015;28;20214;-58
2022/10/19 09:32:39;;;;;;;16.43;8.90;;;14.10;99.90;;;;;;5093237;28;20207;-57
2022/10/19 09:35:21;;;;;;;20.50;8.53;;;14.10;99.90;;;;;;5079855;28;20556;-57
2022/10/19 09:37:51;;;;;;;14.30;8.40;;;14.20;99.90;;;;;;5071768;28;20188;-58
2022/10/19 09:40:23;;;;;;;19.67;9.00;;;14.30;99.90;;;;;;5072972;28;20192;-57
2022/10/19 09:42:56;;;;;;;17.67;8.50;;;14.30;99.90;;;;;;5072802;28;20546;-58
2022/10/19 09:45:35;;;;;;;19.90;7.87;;;14.40;99.90;;;;;;5083546;28;20199;-58
2022/10/19 09:48:11;;;;;;;13.27;8.00;;;14.50;99.90;;;;;;5093074;28;20202;-57
2022/10/19 09:50:43;;;;;;;17.90;7.97;;;14.60;99.90;;;;;;5093201;28;20606;-58
2022/10/19 09:53:20;;;;;;;17.40;8.20;;;14.50;99.90;;;;;;5090216;28;20238;-58
2022/10/19 09:55:52;;;;;;;13.53;7.30;;;14.60;99.90;;;;;;5086651;28;20206;-59
2022/10/19 09:58:24;;;;;;;14.47;7.63;;;14.70;99.90;;;;;;5090767;28;20235;-58
2022/10/19 10:01:00;;;;;;;10.63;7.20;;;14.90;99.90;;;;;;5073135;28;20196;-58
2022/10/19 10:04:06;;;;;;;19.57;8.67;;;15.10;99.90;;;;;;5092085;28;20619;-58
2022/10/19 10:06:36;;;;;;;18.03;7.97;;;15.30;99.90;;;;;;5091532;28;20203;-58
2022/10/19 10:09:06;;;;;;;14.10;6.90;;;15.40;99.90;;;;;;5092781;28;20196;-58
2022/10/19 10:11:37;;;;;;;12.73;6.97;;;15.60;99.90;;;;;;5087913;28;20667;-58
2022/10/19 10:14:19;;;;;;;13.50;7.33;;;15.70;99.90;;;;;;5076438;28;20239;-58
2022/10/19 10:16:47;;;;;;;19.40;7.07;;;15.60;99.90;;;;;;5083101;28;20592;-58
2022/10/19 10:19:17;;;;;;;13.80;6.97;;;15.50;99.90;;;;;;5096592;28;20191;-58
2022/10/19 10:21:48;;;;;;;15.67;7.23;;;15.40;99.90;;;;;;5078438;28;20666;-58
2022/10/19 10:24:20;;;;;;;18.90;7.47;;;15.50;99.90;;;;;;5096257;28;20204;-58
2022/10/19 10:26:51;;;;;;;16.03;6.60;;;15.70;99.90;;;;;;5095183;28;20203;-58
2022/10/19 10:29:21;;;;;;;13.10;6.47;;;15.70;99.90;;;;;;5112018;28;20274;-59
2022/10/19 10:31:52;;;;;;;16.17;7.57;;;15.80;99.90;;;;;;5101650;28;20196;-58
2022/10/19 10:34:33;;;;;;;12.43;6.33;;;15.90;99.90;;;;;;5083396;28;20219;-57
2022/10/19 10:37:21;;;;;;;19.00;6.90;;;16.00;99.90;;;;;;5075971;28;20247;-58
2022/10/19 10:39:53;;;;;;;15.67;7.40;;;16.00;99.90;;;;;;5096535;28;20203;-59
2022/10/19 10:42:30;;;;;;;13.90;7.50;;;16.20;99.90;;;;;;5088141;28;20192;-59
2022/10/19 10:45:00;;;;;;;13.67;6.80;;;16.10;99.90;;;;;;5080955;28;20197;-58
2022/10/19 10:47:48;;;;;;;16.00;6.63;;;16.10;99.90;;;;;;5088673;28;20194;-59
2022/10/19 10:50:48;;;;;;;18.53;6.87;;;16.30;99.90;;;;;;5080558;28;20280;-58
2022/10/19 10:58:15;;;;;;;14.63;7.30;;;16.60;99.90;;;;;;5083713;28;20194;-58
2022/10/19 11:00:45;;;;;;;14.67;6.50;;;16.90;99.90;;;;;;5090142;28;20195;-58
2022/10/19 11:03:21;;;;;;;11.73;6.17;;;16.90;99.90;;;;;;5094404;28;20642;-58
2022/10/19 11:05:54;;;;;;;16.80;6.63;;;17.00;99.90;;;;;;5095189;28;20183;-58
2022/10/19 11:08:27;;;;;;;16.73;7.03;;;17.00;99.90;;;;;;5095315;28;20195;-59
2022/10/19 11:11:00;;;;;;;9.83;5.77;;;17.00;99.90;;;;;;5095481;28;20192;-59
2022/10/19 11:13:37;;;;;;;12.80;6.47;;;17.00;99.90;;;;;;5079714;28;20222;-58
2022/10/19 11:16:13;;;;;;;16.10;7.40;;;17.10;99.90;;;;;;5083267;28;20693;-58
2022/10/19 11:18:48;;;;;;;11.70;6.37;;;17.10;99.90;;;;;;5073800;28;20249;-58
2022/10/19 11:21:23;;;;;;;13.33;6.83;;;17.20;99.90;;;;;;5074848;28;20264;-58
2022/10/19 11:24:07;;;;;;;12.93;6.50;;;17.20;99.90;;;;;;5102695;28;20194;-59
2022/10/19 11:26:47;;;;;;;14.47;6.40;;;17.10;99.90;;;;;;5076956;28;20207;-59
2022/10/19 11:29:38;;;;;;;15.70;6.20;;;17.00;99.90;;;;;;5093627;28;20637;-58
2022/10/19 11:32:17;;;;;;;10.50;6.50;;;17.00;99.90;;;;;;5094919;28;20680;-58
2022/10/19 11:34:57;;;;;;;14.03;6.27;;;17.10;99.90;;;;;;5095116;28;20222;-59
2022/10/19 11:37:30;;;;;;;15.63;7.20;;;17.20;99.90;;;;;;5094879;28;20205;-58
2022/10/19 11:40:09;;;;;;;19.73;7.43;;;17.20;99.90;;;;;;5095209;28;20198;-58
2022/10/19 11:42:48;;;;;;;10.17;6.57;;;17.00;99.90;;;;;;5094914;28;20195;-58
2022/10/19 11:45:27;;;;;;;10.80;6.73;;;17.00;99.90;;;;;;5093808;28;20191;-59
2022/10/19 11:48:32;;;;;;;13.67;6.97;;;17.00;99.90;;;;;;5094948;28;20206;-58
2022/10/19 11:51:06;;;;;;;13.10;6.93;;;17.00;99.90;;;;;;5093476;28;20206;-58
2022/10/19 11:53:57;;;;;;;13.40;6.87;;;17.00;99.90;;;;;;5082442;28;20214;-60
2022/10/19 11:56:31;;;;;;;11.40;6.43;;;17.00;99.90;;;;;;5074413;28;20199;-59
2022/10/19 11:59:28;;;;;;;15.67;6.77;;;17.10;99.90;;;;;;5076887;28;20198;-58
2022/10/19 12:02:05;;;;;;;15.43;6.57;;;17.10;99.90;;;;;;5094553;28;20194;-58
2022/10/19 12:04:46;;;;;;;15.63;6.43;;;17.20;99.90;;;;;;5074153;28;20641;-58
2022/10/19 12:07:38;;;;;;;13.60;6.67;;;17.40;99.90;;;;;;5072761;28;20196;-58
2022/10/19 12:10:18;;;;;;;12.57;6.13;;;17.40;99.90;;;;;;5070120;28;20211;-58
2022/10/19 12:12:49;;;;;;;14.30;6.60;;;17.50;99.90;;;;;;5074041;28;20250;-59
2022/10/19 12:15:23;;;;;;;10.90;6.40;;;17.60;99.90;;;;;;5094198;28;20676;-58
2022/10/19 12:17:55;;;;;;;19.90;6.53;;;17.70;99.90;;;;;;5092919;28;20191;-59
2022/10/19 12:20:29;;;;;;;16.53;6.53;;;17.80;99.90;;;;;;5087505;28;20191;-59
2022/10/19 12:22:59;;;;;;;14.83;7.17;;;17.90;99.90;;;;;;5094374;28;20175;-59
2022/10/19 12:25:28;;;;;;;14.77;6.70;;;17.80;99.90;;;;;;5093562;28;20274;-58
2022/10/19 12:27:58;;;;;;;13.73;7.10;;;17.70;99.90;;;;;;5093887;28;20188;-58
2022/10/19 12:30:26;;;;;;;12.83;6.43;;;17.80;99.90;;;;;;5092331;28;20207;-59
2022/10/19 12:33:09;;;;;;;14.43;6.27;;;18.00;99.90;;;;;;5092757;28;20219;-58
2022/10/19 12:36:05;;;;;;;14.23;7.20;;;18.20;99.90;;;;;;5083000;28;20195;-59
2022/10/19 12:38:42;;;;;;;11.40;6.50;;;18.50;99.90;;;;;;5073685;28;20195;-58
2022/10/19 12:41:24;;;;;;;10.07;6.17;;;18.70;99.90;;;;;;5073623;28;20203;-59
2022/10/19 12:44:37;;;;;;;13.17;6.83;;;18.90;99.90;;;;;;5074907;28;20188;-58
2022/10/19 12:47:49;;;;;;;9.53;6.37;;;19.10;99.90;;;;;;5084214;28;20196;-58
2022/10/19 12:51:04;;;;;;;10.73;6.60;;;19.30;99.90;;;;;;5092863;28;20550;-58
2022/10/19 12:54:13;;;;;;;12.93;6.57;;;19.30;99.90;;;;;;5090809;28;20527;-58
2022/10/19 12:56:49;;;;;;;14.07;6.27;;;19.30;99.90;;;;;;5079078;28;20198;-58
2022/10/19 13:00:08;;;;;;;13.17;6.60;;;19.40;99.90;;;;;;5090947;28;20203;-58
2022/10/19 13:02:41;;;;;;;11.13;6.23;;;19.40;99.90;;;;;;5090547;28;20176;-58
2022/10/19 13:05:20;;;;;;;13.70;6.60;;;19.30;99.90;;;;;;5091029;28;20308;-58
2022/10/19 13:08:24;;;;;;;14.23;6.43;;;19.30;99.90;;;;;;5092041;28;20195;-58
2022/10/19 13:11:06;;;;;;;12.40;6.03;;;19.30;99.90;;;;;;5071328;28;20302;-59
2022/10/19 13:14:11;;;;;;;11.77;7.10;;;19.40;99.90;;;;;;5089498;28;20238;-58
2022/10/19 13:17:32;;;;;;;13.50;6.60;;;19.30;99.90;;;;;;5092146;28;20542;-58
2022/10/19 13:20:39;;;;;;;11.53;6.40;;;19.10;99.90;;;;;;5089577;28;20271;-58
2022/10/19 13:23:40;;;;;;;11.13;6.90;;;19.10;99.90;;;;;;5086130;28;20195;-59
2022/10/19 13:26:31;;;;;;;12.77;7.17;;;19.10;99.90;;;;;;5088317;28;20273;-58
2022/10/19 13:29:01;;;;;;;11.93;6.70;;;19.00;99.90;;;;;;5076882;28;20207;-58
2022/10/19 13:31:31;;;;;;;12.23;6.43;;;19.00;99.90;;;;;;5092951;28;20194;-58
2022/10/19 13:34:20;;;;;;;12.20;7.63;;;19.00;99.90;;;;;;5091940;28;20238;-58